createdAt,value
2019-05-13T00:00:15.190Z,72.50
2019-05-13T00:02:44.004Z,72.90
2019-05-13T00:05:14.705Z,73.30
2019-05-13T00:07:43.901Z,73.40
2019-05-13T00:10:14.687Z,73.50
2019-05-13T00:12:44.608Z,73.60
2019-05-13T00:15:14.132Z,72.70
2019-05-13T00:17:44.582Z,73.50
2019-05-13T00:20:14.104Z,73.30
2019-05-13T00:22:44.635Z,73.70
2019-05-13T00:25:14.470Z,73.70
2019-05-13T00:27:44.503Z,74.20
2019-05-13T00:30:14.491Z,74.40
2019-05-13T00:32:44.569Z,74.30
2019-05-13T00:35:14.213Z,75.00
2019-05-13T00:37:44.374Z,74.70
2019-05-13T00:40:14.397Z,74.50
2019-05-13T00:42:44.295Z,74.90
2019-05-13T00:45:14.637Z,75.30
2019-05-13T00:47:43.930Z,75.40
2019-05-13T00:50:14.313Z,75.80
2019-05-13T00:52:44.781Z,76.10
2019-05-13T00:55:14.683Z,76.00
2019-05-13T00:57:43.933Z,76.50
2019-05-13T01:00:14.117Z,76.60
2019-05-13T01:02:44.677Z,77.10
2019-05-13T01:05:14.619Z,77.70
2019-05-13T01:07:44.444Z,78.30
2019-05-13T01:10:13.560Z,78.80
2019-05-13T01:12:44.029Z,78.50
2019-05-13T01:15:13.808Z,78.90
2019-05-13T01:17:44.777Z,79.20
2019-05-13T01:20:14.439Z,79.90
2019-05-13T01:22:44.094Z,80.20
2019-05-13T01:25:14.638Z,80.50
2019-05-13T01:27:44.291Z,80.30
2019-05-13T01:30:13.622Z,80.20
2019-05-13T01:32:44.640Z,80.30
2019-05-13T01:35:14.896Z,80.80
2019-05-13T01:37:46.129Z,80.90
2019-05-13T01:40:14.488Z,81.70
2019-05-13T01:42:44.469Z,82.50
2019-05-13T01:45:14.000Z,82.70
2019-05-13T01:47:44.133Z,82.70
2019-05-13T01:50:14.327Z,82.40
2019-05-13T01:52:44.532Z,82.00
2019-05-13T01:55:14.518Z,82.00
2019-05-13T01:57:44.301Z,82.30
2019-05-13T02:00:14.103Z,82.70
2019-05-13T02:02:44.621Z,83.00
2019-05-13T02:05:14.055Z,83.30
2019-05-13T02:07:54.481Z,83.70
2019-05-13T02:10:14.827Z,83.40
2019-05-13T02:12:44.596Z,83.50
2019-05-13T02:15:14.509Z,83.80
2019-05-13T02:17:44.593Z,84.50
2019-05-13T02:20:14.717Z,83.60
2019-05-13T02:22:44.575Z,84.10
2019-05-13T02:25:13.931Z,84.00
2019-05-13T02:27:44.012Z,84.80
2019-05-13T02:30:16.205Z,85.30
2019-05-13T02:32:43.264Z,84.90
2019-05-13T02:35:13.854Z,84.40
2019-05-13T02:37:43.307Z,84.80
2019-05-13T02:40:13.453Z,84.90
2019-05-13T02:42:43.732Z,85.10
2019-05-13T02:45:12.867Z,85.40
2019-05-13T02:47:44.389Z,85.50
2019-05-13T02:50:13.041Z,85.90
2019-05-13T02:52:44.485Z,86.00
2019-05-13T02:55:12.644Z,85.90
2019-05-13T02:57:43.597Z,85.90
2019-05-13T03:00:13.130Z,86.40
2019-05-13T03:02:43.983Z,87.20
2019-05-13T03:05:13.990Z,86.80
2019-05-13T03:07:43.235Z,87.10
2019-05-13T03:10:14.041Z,87.10
2019-05-13T03:12:42.987Z,87.30
2019-05-13T03:15:13.351Z,87.30
2019-05-13T03:17:53.154Z,87.60
2019-05-13T03:20:23.028Z,87.50
2019-05-13T03:22:52.762Z,87.70
2019-05-13T03:25:22.758Z,87.80
2019-05-13T03:27:54.019Z,88.20
2019-05-13T03:30:25.676Z,88.20
2019-05-13T03:33:00.457Z,88.20
2019-05-13T03:35:27.030Z,88.20
2019-05-13T03:37:53.594Z,88.10
2019-05-13T03:40:23.256Z,88.10
2019-05-13T03:42:53.507Z,88.50
2019-05-13T03:45:24.487Z,88.30
2019-05-13T03:47:54.888Z,88.80
2019-05-13T03:50:23.485Z,88.60
2019-05-13T03:52:52.487Z,88.80
2019-05-13T03:55:23.047Z,88.80
2019-05-13T03:57:53.329Z,88.50
2019-05-13T04:00:23.482Z,88.60
2019-05-13T04:02:53.030Z,88.40
2019-05-13T04:05:23.293Z,88.50
2019-05-13T04:07:52.818Z,88.20
2019-05-13T04:10:22.938Z,88.30
2019-05-13T04:12:53.055Z,88.40
2019-05-13T04:15:23.423Z,88.30
2019-05-13T04:17:53.061Z,88.20
2019-05-13T04:20:23.421Z,83.90
2019-05-13T04:22:53.199Z,76.90
2019-05-13T04:25:23.135Z,70.60
2019-05-13T04:27:53.397Z,67.90
2019-05-13T04:30:22.602Z,63.10
2019-05-13T04:32:53.271Z,61.50
2019-05-13T04:35:23.450Z,58.80
2019-05-13T04:37:52.977Z,58.70
2019-05-13T04:40:23.066Z,56.70
2019-05-13T04:42:53.595Z,55.80
2019-05-13T04:45:24.062Z,54.90
2019-05-13T04:47:53.110Z,54.10
2019-05-13T04:50:22.811Z,53.60
2019-05-13T04:52:52.909Z,53.70
2019-05-13T04:55:23.021Z,53.70
2019-05-13T04:57:53.336Z,54.20
2019-05-13T05:00:49.677Z,54.70
2019-05-13T05:03:33.428Z,54.50
2019-05-13T05:05:57.076Z,53.90
2019-05-13T05:08:48.208Z,55.40
2019-05-13T05:11:36.280Z,56.50
2019-05-13T05:14:12.047Z,59.10
2019-05-13T05:16:44.920Z,61.80
2019-05-13T05:19:36.044Z,62.70
2019-05-13T05:22:22.253Z,63.40
2019-05-13T05:25:14.492Z,63.50
2019-05-13T05:27:57.917Z,63.20
2019-05-13T05:30:59.322Z,62.00
2019-05-13T05:33:48.598Z,61.60
2019-05-13T05:36:36.307Z,61.20
2019-05-13T05:39:25.317Z,60.90
2019-05-13T05:41:58.225Z,62.00
2019-05-13T05:44:32.134Z,60.50
2019-05-13T05:47:02.677Z,59.50
2019-05-13T05:49:32.147Z,59.60
2019-05-13T05:52:06.290Z,60.30
2019-05-13T05:54:37.185Z,60.80
2019-05-13T05:57:07.499Z,59.30
2019-05-13T05:59:36.696Z,59.70
2019-05-13T06:02:06.585Z,59.70
2019-05-13T06:04:35.223Z,59.40
2019-05-13T06:07:04.132Z,59.40
2019-05-13T06:09:32.701Z,58.80
2019-05-13T06:12:01.842Z,58.00
2019-05-13T06:14:32.623Z,57.00
2019-05-13T06:17:02.735Z,56.30
2019-05-13T06:19:31.883Z,56.20
2019-05-13T06:22:02.196Z,56.70
2019-05-13T06:24:31.420Z,55.30
2019-05-13T06:27:01.510Z,55.60
2019-05-13T06:29:31.704Z,54.80
2019-05-13T06:32:15.261Z,55.00
2019-05-13T06:34:32.583Z,54.20
2019-05-13T06:37:01.765Z,55.80
2019-05-13T06:39:31.682Z,55.30
2019-05-13T06:42:02.671Z,56.50
2019-05-13T06:44:31.641Z,55.40
2019-05-13T06:47:02.555Z,53.60
2019-05-13T06:49:32.143Z,52.90
2019-05-13T06:52:01.754Z,54.50
2019-05-13T06:54:32.881Z,53.20
2019-05-13T06:57:04.249Z,54.30
2019-05-13T06:59:31.736Z,53.90
2019-05-13T07:02:02.171Z,52.30
2019-05-13T07:04:32.577Z,53.70
2019-05-13T07:07:12.381Z,51.30
2019-05-13T07:09:32.971Z,52.30
2019-05-13T07:12:03.186Z,50.60
2019-05-13T07:14:32.541Z,50.80
2019-05-13T07:17:03.539Z,50.00
2019-05-13T07:19:32.650Z,50.80
2019-05-13T07:22:02.826Z,51.00
2019-05-13T07:24:32.462Z,51.40
2019-05-13T07:27:02.063Z,51.00
2019-05-13T07:29:32.589Z,50.40
2019-05-13T07:32:01.904Z,51.20
2019-05-13T07:34:33.642Z,49.50
2019-05-13T07:37:02.185Z,48.80
2019-05-13T07:39:32.829Z,49.10
2019-05-13T07:42:05.503Z,48.30
2019-05-13T07:44:32.597Z,48.60
2019-05-13T07:47:03.365Z,47.60
2019-05-13T07:49:31.941Z,49.50
2019-05-13T07:52:01.550Z,48.50
2019-05-13T07:54:32.923Z,45.90
2019-05-13T07:57:02.022Z,47.60
2019-05-13T07:59:31.873Z,46.60
2019-05-13T08:02:02.235Z,45.30
2019-05-13T08:04:33.452Z,45.90
2019-05-13T08:07:01.865Z,45.70
2019-05-13T08:09:31.873Z,44.60
2019-05-13T08:12:10.059Z,45.20
2019-05-13T08:14:32.682Z,44.10
2019-05-13T08:17:02.551Z,43.60
2019-05-13T08:19:32.472Z,44.60
2019-05-13T08:22:02.065Z,45.30
2019-05-13T08:24:31.537Z,44.30
2019-05-13T08:27:02.119Z,43.80
2019-05-13T08:29:32.696Z,43.40
2019-05-13T08:32:02.838Z,43.30
2019-05-13T08:34:32.855Z,41.70
2019-05-13T08:37:02.829Z,39.70
2019-05-13T08:39:36.379Z,45.80
2019-05-13T08:42:15.133Z,41.10
2019-05-13T08:44:32.868Z,40.60
2019-05-13T08:47:02.928Z,38.20
2019-05-13T08:49:32.693Z,37.70
2019-05-13T08:52:01.724Z,37.50
2019-05-13T08:54:32.872Z,37.20
2019-05-13T08:57:02.933Z,39.70
2019-05-13T08:59:31.889Z,42.20
2019-05-13T09:02:03.180Z,38.50
2019-05-13T09:04:31.604Z,38.30
2019-05-13T09:07:02.051Z,40.40
2019-05-13T09:09:31.536Z,40.10
2019-05-13T09:12:02.365Z,35.30
2019-05-13T09:14:32.319Z,33.90
2019-05-13T09:17:02.042Z,36.50
2019-05-13T09:19:32.279Z,41.10
2019-05-13T09:22:02.852Z,41.90
2019-05-13T09:24:36.954Z,39.20
2019-05-13T09:27:02.149Z,39.00
2019-05-13T09:29:32.239Z,39.00
2019-05-13T09:32:03.837Z,35.10
2019-05-13T09:34:32.743Z,34.90
2019-05-13T09:37:02.809Z,33.80
2019-05-13T09:39:32.395Z,35.10
2019-05-13T09:42:02.768Z,34.50
2019-05-13T09:44:32.768Z,35.80
2019-05-13T09:47:02.522Z,33.40
2019-05-13T09:49:32.925Z,33.40
2019-05-13T09:52:01.955Z,34.80
2019-05-13T09:54:32.830Z,35.20
2019-05-13T09:57:01.720Z,37.80
2019-05-13T09:59:31.737Z,36.60
2019-05-13T10:02:03.008Z,36.00
2019-05-13T10:04:31.833Z,35.20
2019-05-13T10:07:02.311Z,34.40
2019-05-13T10:09:32.708Z,35.30
2019-05-13T10:12:03.207Z,34.10
2019-05-13T10:14:32.761Z,33.60
2019-05-13T10:17:05.732Z,35.90
2019-05-13T10:19:32.484Z,36.50
2019-05-13T10:22:01.230Z,35.30
2019-05-13T10:24:32.349Z,40.00
2019-05-13T10:27:02.401Z,39.30
2019-05-13T10:29:32.112Z,41.10
2019-05-13T10:32:02.813Z,40.20
2019-05-13T10:34:32.171Z,39.70
2019-05-13T10:37:02.606Z,42.30
2019-05-13T10:39:31.357Z,40.80
2019-05-13T10:42:03.148Z,38.30
2019-05-13T10:44:30.127Z,35.40
2019-05-13T10:46:58.750Z,38.30
2019-05-13T10:49:27.336Z,39.80
2019-05-13T10:51:55.936Z,38.50
2019-05-13T10:54:24.506Z,37.00
2019-05-13T10:56:58.926Z,36.00
2019-05-13T10:59:23.331Z,39.90
2019-05-13T11:01:51.876Z,40.10
2019-05-13T11:04:22.204Z,42.20
2019-05-13T11:06:52.546Z,43.00
2019-05-13T11:09:22.163Z,35.70
2019-05-13T11:11:52.907Z,38.20
2019-05-13T11:14:22.065Z,38.00
2019-05-13T11:16:52.337Z,39.40
2019-05-13T11:19:23.231Z,42.20
2019-05-13T11:21:51.568Z,43.80
2019-05-13T11:24:22.595Z,42.80
2019-05-13T11:26:52.248Z,39.20
2019-05-13T11:29:23.071Z,38.90
2019-05-13T11:31:52.485Z,37.50
2019-05-13T11:34:22.070Z,36.30
2019-05-13T11:36:53.153Z,38.80
2019-05-13T11:39:21.880Z,36.10
2019-05-13T11:41:50.689Z,36.00
2019-05-13T11:44:19.262Z,37.40
2019-05-13T11:46:47.805Z,35.60
2019-05-13T11:49:16.368Z,36.40
2019-05-13T11:51:45.116Z,38.40
2019-05-13T11:54:14.259Z,37.10
2019-05-13T11:56:49.315Z,35.70
2019-05-13T11:59:14.139Z,35.00
2019-05-13T12:01:42.988Z,36.20
2019-05-13T12:04:11.544Z,39.10
2019-05-13T12:06:45.830Z,36.10
2019-05-13T12:09:12.985Z,35.40
2019-05-13T12:11:40.632Z,35.20
2019-05-13T12:14:34.650Z,35.00
2019-05-13T12:16:42.110Z,32.30
2019-05-13T12:19:11.822Z,30.30
2019-05-13T12:21:43.407Z,33.40
2019-05-13T12:24:11.324Z,31.00
2019-05-13T12:26:43.137Z,32.20
2019-05-13T12:29:17.854Z,33.70
2019-05-13T12:31:40.726Z,35.40
2019-05-13T12:34:12.760Z,30.30
2019-05-13T12:36:42.927Z,31.00
2019-05-13T12:39:13.837Z,30.40
2019-05-13T12:41:42.835Z,28.90
2019-05-13T12:44:12.783Z,30.10
2019-05-13T12:46:41.504Z,29.10
2019-05-13T12:49:14.170Z,29.10
2019-05-13T12:51:43.941Z,30.80
2019-05-13T12:54:13.553Z,29.60
2019-05-13T12:56:42.637Z,34.90
2019-05-13T12:59:13.113Z,32.60
2019-05-13T13:01:41.553Z,32.40
2019-05-13T13:04:12.223Z,30.10
2019-05-13T13:06:44.863Z,31.60
2019-05-13T13:09:12.777Z,32.90
2019-05-13T13:11:43.584Z,31.40
2019-05-13T13:14:15.137Z,32.00
2019-05-13T13:16:42.357Z,33.00
2019-05-13T13:19:14.832Z,28.80
2019-05-13T13:21:41.547Z,30.40
2019-05-13T13:24:12.411Z,30.90
2019-05-13T13:26:42.819Z,30.70
2019-05-13T13:29:10.731Z,30.00
2019-05-13T13:31:42.746Z,33.70
2019-05-13T13:34:13.616Z,34.90
2019-05-13T13:36:45.380Z,35.50
2019-05-13T13:39:13.837Z,35.40
2019-05-13T13:41:43.415Z,30.50
2019-05-13T13:44:12.268Z,29.40
2019-05-13T13:46:44.693Z,34.40
2019-05-13T13:49:13.092Z,33.10
2019-05-13T13:51:44.391Z,32.50
2019-05-13T13:54:11.954Z,33.80
2019-05-13T13:56:43.809Z,30.80
2019-05-13T13:59:13.841Z,32.80
2019-05-13T14:01:41.014Z,30.60
2019-05-13T14:04:09.493Z,32.10
2019-05-13T14:09:08.322Z,31.80
2019-05-13T14:11:36.898Z,30.50
2019-05-13T14:14:05.517Z,30.40
2019-05-13T14:16:35.217Z,29.90
2019-05-13T14:19:04.366Z,31.60
2019-05-13T14:21:32.943Z,30.00
2019-05-13T14:24:02.668Z,31.10
2019-05-13T14:26:33.133Z,32.90
2019-05-13T14:29:02.591Z,33.00
2019-05-13T14:31:32.331Z,29.40
2019-05-13T14:34:03.403Z,29.10
2019-05-13T14:36:31.435Z,28.40
2019-05-13T14:39:02.487Z,30.20
2019-05-13T14:41:31.260Z,30.60
2019-05-13T14:43:59.924Z,29.10
2019-05-13T14:46:44.019Z,28.20
2019-05-13T14:48:58.622Z,30.20
2019-05-13T14:51:27.184Z,28.90
2019-05-13T14:53:55.732Z,30.50
2019-05-13T14:56:24.238Z,27.80
2019-05-13T14:58:52.778Z,28.30
2019-05-13T15:01:22.784Z,29.10
2019-05-13T15:03:52.088Z,29.90
2019-05-13T15:06:22.367Z,30.30
2019-05-13T15:08:52.674Z,31.20
2019-05-13T15:11:21.972Z,32.60
2019-05-13T15:13:51.810Z,31.30
2019-05-13T15:16:22.387Z,31.40
2019-05-13T15:18:52.452Z,28.90
2019-05-13T15:21:21.411Z,32.40
2019-05-13T15:23:51.750Z,30.50
2019-05-13T15:26:22.255Z,31.10
2019-05-13T15:28:51.807Z,31.90
2019-05-13T15:31:22.155Z,33.20
2019-05-13T15:33:52.457Z,34.80
2019-05-13T15:36:22.505Z,32.00
2019-05-13T15:38:52.004Z,30.00
2019-05-13T15:41:20.718Z,30.20
2019-05-13T15:43:51.202Z,32.30
2019-05-13T15:46:21.839Z,34.30
2019-05-13T15:48:51.403Z,34.90
2019-05-13T15:51:22.128Z,35.00
2019-05-13T15:53:51.777Z,34.60
2019-05-13T15:56:22.400Z,34.90
2019-05-13T15:58:52.913Z,36.50
2019-05-13T16:01:22.877Z,35.90
2019-05-13T16:03:52.510Z,36.70
2019-05-13T16:06:21.324Z,37.40
2019-05-13T16:08:51.889Z,37.50
2019-05-13T16:11:22.040Z,35.10
2019-05-13T16:13:51.870Z,38.00
2019-05-13T16:18:51.431Z,38.00
2019-05-13T16:21:20.374Z,40.40
2019-05-13T16:23:48.972Z,41.30
2019-05-13T16:26:17.716Z,41.60
2019-05-13T16:28:46.272Z,40.20
2019-05-13T16:31:14.975Z,40.00
2019-05-13T16:33:44.484Z,38.70
2019-05-13T16:36:13.037Z,39.10
2019-05-13T16:38:41.947Z,39.10
2019-05-13T16:41:12.460Z,39.50
2019-05-13T16:43:42.673Z,39.00
2019-05-13T16:46:12.111Z,38.10
2019-05-13T16:48:41.621Z,38.50
2019-05-13T16:51:12.483Z,37.30
2019-05-13T16:53:42.122Z,37.30
2019-05-13T16:56:25.320Z,36.60
2019-05-13T16:58:41.887Z,34.80
2019-05-13T17:01:11.806Z,36.30
2019-05-13T17:03:41.389Z,36.20
2019-05-13T17:06:12.447Z,36.20
2019-05-13T17:08:42.455Z,37.30
2019-05-13T17:11:11.753Z,39.90
2019-05-13T17:13:42.162Z,39.50
2019-05-13T17:16:10.915Z,38.70
2019-05-13T17:18:41.486Z,37.30
2019-05-13T17:21:09.694Z,37.10
2019-05-13T17:23:38.268Z,38.10
2019-05-13T17:26:06.893Z,37.00
2019-05-13T17:28:35.464Z,37.00
2019-05-13T17:31:04.284Z,35.60
2019-05-13T17:33:32.830Z,36.10
2019-05-13T17:36:01.995Z,38.70
2019-05-13T17:38:32.296Z,36.80
2019-05-13T17:41:02.154Z,36.90
2019-05-13T17:43:31.947Z,37.90
2019-05-13T17:46:00.801Z,37.00
2019-05-13T17:48:32.078Z,36.30
2019-05-13T17:51:01.293Z,36.60
2019-05-13T17:53:32.265Z,36.10
2019-05-13T17:56:02.158Z,35.40
2019-05-13T17:58:31.372Z,35.60
2019-05-13T18:01:01.608Z,36.40
2019-05-13T18:03:32.138Z,37.20
2019-05-13T18:06:02.428Z,35.10
2019-05-13T18:08:31.994Z,35.30
2019-05-13T18:11:02.151Z,36.30
2019-05-13T18:13:31.795Z,36.20
2019-05-13T18:16:02.552Z,36.40
2019-05-13T18:18:40.180Z,36.90
2019-05-13T18:21:01.622Z,35.30
2019-05-13T18:23:30.206Z,36.10
2019-05-13T18:25:58.769Z,35.80
2019-05-13T18:28:31.034Z,37.60
2019-05-13T18:30:57.520Z,38.50
2019-05-13T18:33:26.069Z,37.90
2019-05-13T18:35:54.573Z,38.10
2019-05-13T18:38:23.113Z,38.10
2019-05-13T18:40:52.627Z,37.90
2019-05-13T18:43:22.317Z,39.80
2019-05-13T18:45:52.586Z,39.70
2019-05-13T18:48:21.955Z,40.00
2019-05-13T19:22:56.610Z,42.90
2019-05-13T19:25:43.587Z,43.00
2019-05-13T19:28:12.190Z,43.80
2019-05-13T19:30:41.176Z,44.30
2019-05-13T19:33:11.972Z,43.70
2019-05-13T19:35:42.400Z,44.00
2019-05-13T19:38:12.150Z,43.50
2019-05-13T19:40:41.908Z,44.50
2019-05-13T19:43:11.545Z,44.50
2019-05-13T19:45:41.675Z,44.60
2019-05-13T19:48:11.919Z,44.70
2019-05-13T19:50:41.570Z,45.00
2019-05-13T19:53:12.082Z,45.30
2019-05-13T19:55:41.469Z,45.30
2019-05-13T19:58:12.347Z,45.30
2019-05-13T20:00:42.338Z,45.60
2019-05-13T20:03:11.866Z,46.10
2019-05-13T20:05:41.507Z,46.00
2019-05-13T20:08:10.284Z,46.40
2019-05-13T20:10:38.812Z,46.30
2019-05-13T20:13:07.386Z,46.60
2019-05-13T20:15:35.943Z,46.70
2019-05-13T20:18:04.707Z,47.20
2019-05-13T20:20:33.245Z,46.60
2019-05-13T20:23:01.906Z,46.90
2019-05-13T20:25:31.242Z,46.90
2019-05-13T20:28:02.160Z,46.80
2019-05-13T20:30:30.005Z,47.50
2019-05-13T20:32:58.583Z,47.30
2019-05-13T20:35:27.140Z,47.40
2019-05-13T20:37:55.838Z,47.50
2019-05-13T20:40:24.445Z,48.10
2019-05-13T20:42:53.012Z,47.40
2019-05-13T20:45:22.480Z,47.50
2019-05-13T20:47:51.157Z,47.30
2019-05-13T20:50:21.738Z,47.50
2019-05-13T20:52:51.568Z,47.70
2019-05-13T20:55:21.990Z,47.80
2019-05-13T20:57:52.826Z,47.80
2019-05-13T21:00:20.769Z,48.20
2019-05-13T21:02:51.498Z,48.50
2019-05-13T21:05:21.776Z,48.50
2019-05-13T21:07:51.499Z,48.10
2019-05-13T21:10:21.186Z,48.00
2019-05-13T21:12:51.357Z,48.00
2019-05-13T21:15:20.134Z,48.00
2019-05-13T21:17:48.772Z,48.30
2019-05-13T21:20:21.988Z,48.60
2019-05-13T21:22:47.698Z,48.60
2019-05-13T21:25:16.381Z,48.80
2019-05-13T21:27:44.939Z,49.10
2019-05-13T21:30:13.830Z,49.20
2019-05-13T21:32:42.469Z,49.40
2019-05-13T21:35:11.863Z,49.70
2019-05-13T21:37:40.558Z,49.80
2019-05-13T21:40:11.201Z,49.90
2019-05-13T21:42:41.954Z,50.20
2019-05-13T21:45:11.208Z,50.90
2019-05-13T21:47:39.878Z,50.30
2019-05-13T21:50:11.340Z,50.40
2019-05-13T21:52:41.544Z,50.60
2019-05-13T21:55:11.368Z,50.70
2019-05-13T21:57:41.558Z,50.80
2019-05-13T22:00:15.827Z,51.10
2019-05-13T22:02:44.391Z,51.10
2019-05-13T22:05:13.209Z,51.20
2019-05-13T22:07:42.220Z,51.30
2019-05-13T22:10:10.942Z,51.50
2019-05-13T22:12:41.425Z,51.40
2019-05-13T22:15:09.933Z,51.70
2019-05-13T22:17:38.481Z,51.90
2019-05-13T22:20:12.074Z,51.90
2019-05-13T22:22:41.544Z,51.90
2019-05-13T22:25:12.188Z,51.90
2019-05-13T22:27:41.281Z,51.90
2019-05-13T22:30:11.849Z,52.00
2019-05-13T22:32:41.763Z,52.40
2019-05-13T22:35:11.175Z,52.20
2019-05-13T22:37:39.776Z,52.40
2019-05-13T22:40:11.098Z,52.90
2019-05-13T22:42:41.357Z,52.80
2019-05-13T22:45:11.727Z,53.30
2019-05-13T22:47:41.722Z,53.90
2019-05-13T22:50:11.469Z,53.80
2019-05-13T22:52:41.837Z,54.40
2019-05-13T22:55:11.498Z,54.50
2019-05-13T22:57:42.007Z,54.90
2019-05-13T23:00:11.922Z,55.60
2019-05-13T23:02:42.220Z,55.90
2019-05-13T23:05:11.450Z,55.70
2019-05-13T23:07:40.042Z,55.90
2019-05-13T23:10:08.746Z,55.90
2019-05-13T23:12:37.276Z,56.20
2019-05-13T23:15:07.647Z,56.30
2019-05-13T23:17:36.121Z,56.30
2019-05-13T23:20:06.021Z,56.10
2019-05-13T23:22:34.489Z,56.50
2019-05-13T23:25:03.120Z,56.50
2019-05-13T23:27:32.108Z,56.70
2019-05-13T23:30:01.330Z,56.70
2019-05-13T23:32:32.044Z,56.70
2019-05-13T23:35:02.028Z,56.90
2019-05-13T23:37:31.101Z,57.00
2019-05-13T23:40:01.429Z,56.40
2019-05-13T23:42:31.975Z,55.90
2019-05-13T23:45:00.106Z,55.70
2019-05-13T23:47:28.570Z,55.70
2019-05-13T23:49:57.135Z,55.90
2019-05-13T23:52:25.606Z,55.70
2019-05-13T23:54:54.169Z,55.80
2019-05-13T23:57:22.646Z,56.10
2019-05-13T23:59:51.274Z,57.50
